sensor_id;sensor_type;location;lat;lon;timestamp;temperature;humidity
2387;DHT22;49473;50.772;8.768;2023-08-21T00:01:25;19.30;99.90
2387;DHT22;49473;50.772;8.768;2023-08-21T00:03:51;19.30;99.90
2387;DHT22;49473;50.772;8.768;2023-08-21T00:06:18;19.20;99.90
2387;DHT22;49473;50.772;8.768;2023-08-21T00:08:45;19.20;99.90
2387;DHT22;49473;50.772;8.768;2023-08-21T00:11:13;19.20;99.90
2387;DHT22;49473;50.772;8.768;2023-08-21T00:13:40;19.20;99.90
2387;DHT22;49473;50.772;8.768;2023-08-21T00:16:10;19.20;99.90
2387;DHT22;49473;50.772;8.768;2023-08-21T00:18:36;19.20;99.90
2387;DHT22;49473;50.772;8.768;2023-08-21T00:21:03;19.10;99.90
2387;DHT22;49473;50.772;8.768;2023-08-21T00:23:30;19.00;99.90
2387;DHT22;49473;50.772;8.768;2023-08-21T00:25:57;19.00;99.90
2387;DHT22;49473;50.772;8.768;2023-08-21T00:28:25;19.00;99.90
2387;DHT22;49473;50.772;8.768;2023-08-21T00:31:00;19.00;99.90
2387;DHT22;49473;50.772;8.768;2023-08-21T00:33:26;18.90;99.90
2387;DHT22;49473;50.772;8.768;2023-08-21T00:35:54;18.90;99.90
2387;DHT22;49473;50.772;8.768;2023-08-21T00:38:21;18.90;99.90
2387;DHT22;49473;50.772;8.768;2023-08-21T00:40:47;18.90;99.90
2387;DHT22;49473;50.772;8.768;2023-08-21T00:43:14;18.90;99.90
2387;DHT22;49473;50.772;8.768;2023-08-21T00:45:44;18.90;99.90
2387;DHT22;49473;50.772;8.768;2023-08-21T00:48:11;18.90;99.90
2387;DHT22;49473;50.772;8.768;2023-08-21T00:50:40;18.80;99.90
2387;DHT22;49473;50.772;8.768;2023-08-21T00:53:07;18.80;99.90
2387;DHT22;49473;50.772;8.768;2023-08-21T00:55:34;18.70;99.90
2387;DHT22;49473;50.772;8.768;2023-08-21T00:58:02;18.70;99.90
2387;DHT22;49473;50.772;8.768;2023-08-21T01:00:30;18.60;99.90
2387;DHT22;49473;50.772;8.768;2023-08-21T01:02:58;18.60;99.90
2387;DHT22;49473;50.772;8.768;2023-08-21T01:05:25;18.60;99.90
2387;DHT22;49473;50.772;8.768;2023-08-21T01:07:57;18.50;99.90
2387;DHT22;49473;50.772;8.768;2023-08-21T01:10:33;18.60;99.90
2387;DHT22;49473;50.772;8.768;2023-08-21T01:13:09;18.60;99.90
2387;DHT22;49473;50.772;8.768;2023-08-21T01:15:38;18.60;99.90
2387;DHT22;49473;50.772;8.768;2023-08-21T01:18:08;18.60;99.90
2387;DHT22;49473;50.772;8.768;2023-08-21T01:20:35;18.60;99.90
2387;DHT22;49473;50.772;8.768;2023-08-21T01:23:04;18.50;99.90
2387;DHT22;49473;50.772;8.768;2023-08-21T01:25:33;18.50;99.90
2387;DHT22;49473;50.772;8.768;2023-08-21T01:28:00;18.50;99.90
2387;DHT22;49473;50.772;8.768;2023-08-21T01:30:28;18.50;99.90
2387;DHT22;49473;50.772;8.768;2023-08-21T01:32:59;18.60;99.90
2387;DHT22;49473;50.772;8.768;2023-08-21T01:35:28;18.50;99.90
2387;DHT22;49473;50.772;8.768;2023-08-21T01:37:55;18.50;99.90
2387;DHT22;49473;50.772;8.768;2023-08-21T01:40:23;18.40;99.90
2387;DHT22;49473;50.772;8.768;2023-08-21T01:42:52;18.50;99.90
2387;DHT22;49473;50.772;8.768;2023-08-21T01:45:19;18.40;99.90
2387;DHT22;49473;50.772;8.768;2023-08-21T01:47:46;18.40;99.90
2387;DHT22;49473;50.772;8.768;2023-08-21T01:50:13;18.40;99.90
2387;DHT22;49473;50.772;8.768;2023-08-21T01:52:39;18.40;99.90
2387;DHT22;49473;50.772;8.768;2023-08-21T01:55:06;18.40;99.90
2387;DHT22;49473;50.772;8.768;2023-08-21T01:57:34;18.40;99.90
2387;DHT22;49473;50.772;8.768;2023-08-21T02:00:02;18.40;99.90
2387;DHT22;49473;50.772;8.768;2023-08-21T02:02:30;18.40;99.90
2387;DHT22;49473;50.772;8.768;2023-08-21T02:04:56;18.40;99.90
2387;DHT22;49473;50.772;8.768;2023-08-21T02:07:23;18.50;99.90
2387;DHT22;49473;50.772;8.768;2023-08-21T02:09:50;18.50;99.90
2387;DHT22;49473;50.772;8.768;2023-08-21T02:12:17;18.50;99.90
2387;DHT22;49473;50.772;8.768;2023-08-21T02:14:44;18.60;99.90
2387;DHT22;49473;50.772;8.768;2023-08-21T02:17:12;18.60;99.90
2387;DHT22;49473;50.772;8.768;2023-08-21T02:19:39;18.70;99.90
2387;DHT22;49473;50.772;8.768;2023-08-21T02:22:06;18.70;99.90
2387;DHT22;49473;50.772;8.768;2023-08-21T02:24:33;18.70;99.90
2387;DHT22;49473;50.772;8.768;2023-08-21T02:26:59;18.70;99.90
2387;DHT22;49473;50.772;8.768;2023-08-21T02:29:26;18.70;99.90
2387;DHT22;49473;50.772;8.768;2023-08-21T02:31:53;18.70;99.90
2387;DHT22;49473;50.772;8.768;2023-08-21T02:34:21;18.80;99.90
2387;DHT22;49473;50.772;8.768;2023-08-21T02:36:48;18.70;99.90
2387;DHT22;49473;50.772;8.768;2023-08-21T02:39:14;18.70;99.90
2387;DHT22;49473;50.772;8.768;2023-08-21T02:41:41;18.60;99.90
2387;DHT22;49473;50.772;8.768;2023-08-21T02:44:08;18.60;99.90
2387;DHT22;49473;50.772;8.768;2023-08-21T02:46:35;18.60;99.90
2387;DHT22;49473;50.772;8.768;2023-08-21T02:49:01;18.50;99.90
2387;DHT22;49473;50.772;8.768;2023-08-21T02:51:30;18.40;99.90
2387;DHT22;49473;50.772;8.768;2023-08-21T02:53:56;18.40;99.90
2387;DHT22;49473;50.772;8.768;2023-08-21T02:56:23;18.40;99.90
2387;DHT22;49473;50.772;8.768;2023-08-21T02:58:50;18.50;99.90
2387;DHT22;49473;50.772;8.768;2023-08-21T03:01:16;18.40;99.90
2387;DHT22;49473;50.772;8.768;2023-08-21T03:03:44;18.40;99.90
2387;DHT22;49473;50.772;8.768;2023-08-21T03:06:11;18.40;99.90
2387;DHT22;49473;50.772;8.768;2023-08-21T03:08:39;18.30;99.90
2387;DHT22;49473;50.772;8.768;2023-08-21T03:11:08;18.40;99.90
2387;DHT22;49473;50.772;8.768;2023-08-21T03:13:35;18.40;99.90
2387;DHT22;49473;50.772;8.768;2023-08-21T03:16:02;18.40;99.90
2387;DHT22;49473;50.772;8.768;2023-08-21T03:18:30;18.30;99.90
2387;DHT22;49473;50.772;8.768;2023-08-21T03:20:57;18.30;99.90
2387;DHT22;49473;50.772;8.768;2023-08-21T03:23:24;18.30;99.90
2387;DHT22;49473;50.772;8.768;2023-08-21T03:25:53;18.20;99.90
2387;DHT22;49473;50.772;8.768;2023-08-21T03:28:20;18.20;99.90
2387;DHT22;49473;50.772;8.768;2023-08-21T03:30:46;18.20;99.90
2387;DHT22;49473;50.772;8.768;2023-08-21T03:33:13;18.20;99.90
2387;DHT22;49473;50.772;8.768;2023-08-21T03:35:40;18.10;99.90
2387;DHT22;49473;50.772;8.768;2023-08-21T03:38:07;18.10;99.90
2387;DHT22;49473;50.772;8.768;2023-08-21T03:40:33;18.10;99.90
2387;DHT22;49473;50.772;8.768;2023-08-21T03:43:02;18.20;99.90
2387;DHT22;49473;50.772;8.768;2023-08-21T03:45:28;18.20;99.90
2387;DHT22;49473;50.772;8.768;2023-08-21T03:47:55;18.20;99.90
2387;DHT22;49473;50.772;8.768;2023-08-21T03:50:22;18.30;99.90
2387;DHT22;49473;50.772;8.768;2023-08-21T03:52:48;18.30;99.90
2387;DHT22;49473;50.772;8.768;2023-08-21T03:55:15;18.30;99.90
2387;DHT22;49473;50.772;8.768;2023-08-21T03:57:42;18.30;99.90
2387;DHT22;49473;50.772;8.768;2023-08-21T04:00:11;18.20;99.90
2387;DHT22;49473;50.772;8.768;2023-08-21T04:02:38;18.20;99.90
2387;DHT22;49473;50.772;8.768;2023-08-21T04:05:05;18.10;99.90
2387;DHT22;49473;50.772;8.768;2023-08-21T04:07:32;18.20;99.90
2387;DHT22;49473;50.772;8.768;2023-08-21T04:09:58;18.20;99.90
2387;DHT22;49473;50.772;8.768;2023-08-21T04:12:25;18.20;99.90
2387;DHT22;49473;50.772;8.768;2023-08-21T04:14:52;18.20;99.90
2387;DHT22;49473;50.772;8.768;2023-08-21T04:17:22;18.10;99.90
2387;DHT22;49473;50.772;8.768;2023-08-21T04:19:48;18.10;99.90
2387;DHT22;49473;50.772;8.768;2023-08-21T04:22:15;18.10;99.90
2387;DHT22;49473;50.772;8.768;2023-08-21T04:24:42;18.10;99.90
2387;DHT22;49473;50.772;8.768;2023-08-21T04:27:09;18.10;99.90
2387;DHT22;49473;50.772;8.768;2023-08-21T04:29:36;18.20;99.90
2387;DHT22;49473;50.772;8.768;2023-08-21T04:32:03;18.20;99.90
2387;DHT22;49473;50.772;8.768;2023-08-21T04:34:32;18.20;99.90
2387;DHT22;49473;50.772;8.768;2023-08-21T04:36:59;18.20;99.90
2387;DHT22;49473;50.772;8.768;2023-08-21T04:39:25;18.10;99.90
2387;DHT22;49473;50.772;8.768;2023-08-21T04:41:52;18.10;99.90
2387;DHT22;49473;50.772;8.768;2023-08-21T04:44:19;18.00;99.90
2387;DHT22;49473;50.772;8.768;2023-08-21T04:46:48;18.00;99.90
2387;DHT22;49473;50.772;8.768;2023-08-21T04:49:16;18.00;99.90
2387;DHT22;49473;50.772;8.768;2023-08-21T04:51:44;18.00;99.90
2387;DHT22;49473;50.772;8.768;2023-08-21T04:54:10;18.00;99.90
2387;DHT22;49473;50.772;8.768;2023-08-21T04:56:37;18.00;99.90
2387;DHT22;49473;50.772;8.768;2023-08-21T04:59:04;18.00;99.90
2387;DHT22;49473;50.772;8.768;2023-08-21T05:01:31;18.00;99.90
2387;DHT22;49473;50.772;8.768;2023-08-21T05:03:57;18.00;99.90
2387;DHT22;49473;50.772;8.768;2023-08-21T05:06:24;18.00;99.90
2387;DHT22;49473;50.772;8.768;2023-08-21T05:08:52;18.00;99.90
2387;DHT22;49473;50.772;8.768;2023-08-21T05:11:19;18.00;99.90
2387;DHT22;49473;50.772;8.768;2023-08-21T05:13:46;18.00;99.90
2387;DHT22;49473;50.772;8.768;2023-08-21T05:16:12;18.00;99.90
2387;DHT22;49473;50.772;8.768;2023-08-21T05:18:39;18.10;99.90
2387;DHT22;49473;50.772;8.768;2023-08-21T05:21:06;18.20;99.90
2387;DHT22;49473;50.772;8.768;2023-08-21T05:23:33;18.20;99.90
2387;DHT22;49473;50.772;8.768;2023-08-21T05:26:01;18.30;99.90
2387;DHT22;49473;50.772;8.768;2023-08-21T05:28:27;18.40;99.90
2387;DHT22;49473;50.772;8.768;2023-08-21T05:30:54;18.60;99.90
2387;DHT22;49473;50.772;8.768;2023-08-21T05:33:21;18.70;99.90
2387;DHT22;49473;50.772;8.768;2023-08-21T05:35:47;18.90;99.90
2387;DHT22;49473;50.772;8.768;2023-08-21T05:38:14;19.10;99.90
2387;DHT22;49473;50.772;8.768;2023-08-21T05:40:41;19.20;99.90
2387;DHT22;49473;50.772;8.768;2023-08-21T05:43:09;19.50;99.90
2387;DHT22;49473;50.772;8.768;2023-08-21T05:45:36;19.60;99.90
2387;DHT22;49473;50.772;8.768;2023-08-21T05:48:03;19.70;99.90
2387;DHT22;49473;50.772;8.768;2023-08-21T05:50:30;19.80;99.90
2387;DHT22;49473;50.772;8.768;2023-08-21T05:52:57;20.00;99.90
2387;DHT22;49473;50.772;8.768;2023-08-21T05:55:24;20.10;99.90
2387;DHT22;49473;50.772;8.768;2023-08-21T05:57:50;20.30;99.90
2387;DHT22;49473;50.772;8.768;2023-08-21T06:00:19;20.40;99.90
2387;DHT22;49473;50.772;8.768;2023-08-21T06:02:46;20.50;99.90
2387;DHT22;49473;50.772;8.768;2023-08-21T06:05:13;20.70;99.90
2387;DHT22;49473;50.772;8.768;2023-08-21T06:07:40;21.10;99.90
2387;DHT22;49473;50.772;8.768;2023-08-21T06:10:07;21.60;99.90
2387;DHT22;49473;50.772;8.768;2023-08-21T06:12:37;22.20;99.90
2387;DHT22;49473;50.772;8.768;2023-08-21T06:15:04;23.00;99.90
2387;DHT22;49473;50.772;8.768;2023-08-21T06:17:34;23.50;99.90
2387;DHT22;49473;50.772;8.768;2023-08-21T06:20:01;24.10;99.90
2387;DHT22;49473;50.772;8.768;2023-08-21T06:22:31;25.00;99.90
2387;DHT22;49473;50.772;8.768;2023-08-21T06:24:58;25.70;99.90
2387;DHT22;49473;50.772;8.768;2023-08-21T06:27:25;26.50;99.90
2387;DHT22;49473;50.772;8.768;2023-08-21T06:29:51;26.60;99.90
2387;DHT22;49473;50.772;8.768;2023-08-21T06:32:18;26.50;99.90
2387;DHT22;49473;50.772;8.768;2023-08-21T06:34:46;26.60;99.90
2387;DHT22;49473;50.772;8.768;2023-08-21T06:37:13;26.90;99.90
2387;DHT22;49473;50.772;8.768;2023-08-21T06:39:40;27.40;99.90
2387;DHT22;49473;50.772;8.768;2023-08-21T06:42:06;27.90;99.90
2387;DHT22;49473;50.772;8.768;2023-08-21T06:44:33;28.60;99.90
2387;DHT22;49473;50.772;8.768;2023-08-21T06:47:00;29.10;99.90
2387;DHT22;49473;50.772;8.768;2023-08-21T06:49:26;29.60;99.90
2387;DHT22;49473;50.772;8.768;2023-08-21T06:51:55;29.70;99.90
2387;DHT22;49473;50.772;8.768;2023-08-21T06:54:21;30.10;99.90
2387;DHT22;49473;50.772;8.768;2023-08-21T06:56:48;30.30;99.90
2387;DHT22;49473;50.772;8.768;2023-08-21T06:59:15;30.50;99.90
2387;DHT22;49473;50.772;8.768;2023-08-21T07:01:41;31.00;99.90
2387;DHT22;49473;50.772;8.768;2023-08-21T07:04:10;31.60;99.90
2387;DHT22;49473;50.772;8.768;2023-08-21T07:06:37;31.60;99.90
2387;DHT22;49473;50.772;8.768;2023-08-21T07:09:05;31.90;99.90
2387;DHT22;49473;50.772;8.768;2023-08-21T07:11:32;32.30;99.90
2387;DHT22;49473;50.772;8.768;2023-08-21T07:13:59;32.20;99.90
2387;DHT22;49473;50.772;8.768;2023-08-21T07:16:25;32.70;99.90
2387;DHT22;49473;50.772;8.768;2023-08-21T07:18:52;33.30;99.90
2387;DHT22;49473;50.772;8.768;2023-08-21T07:21:19;33.20;99.90
2387;DHT22;49473;50.772;8.768;2023-08-21T07:23:46;33.50;99.90
2387;DHT22;49473;50.772;8.768;2023-08-21T07:26:14;33.60;99.90
2387;DHT22;49473;50.772;8.768;2023-08-21T07:28:40;34.10;99.90
2387;DHT22;49473;50.772;8.768;2023-08-21T07:31:07;34.30;99.90
2387;DHT22;49473;50.772;8.768;2023-08-21T07:33:34;33.40;99.90
2387;DHT22;49473;50.772;8.768;2023-08-21T07:36:01;32.70;99.90
2387;DHT22;49473;50.772;8.768;2023-08-21T07:38:28;32.70;99.90
2387;DHT22;49473;50.772;8.768;2023-08-21T07:41:02;32.30;99.90
2387;DHT22;49473;50.772;8.768;2023-08-21T07:43:31;32.80;99.90
2387;DHT22;49473;50.772;8.768;2023-08-21T07:46:01;33.50;99.90
2387;DHT22;49473;50.772;8.768;2023-08-21T07:48:28;34.30;99.90
2387;DHT22;49473;50.772;8.768;2023-08-21T07:50:54;34.70;99.90
2387;DHT22;49473;50.772;8.768;2023-08-21T07:53:21;35.20;99.90
2387;DHT22;49473;50.772;8.768;2023-08-21T07:55:48;35.50;99.90
2387;DHT22;49473;50.772;8.768;2023-08-21T07:58:15;36.00;99.90
2387;DHT22;49473;50.772;8.768;2023-08-21T08:00:43;36.50;99.90
2387;DHT22;49473;50.772;8.768;2023-08-21T08:03:10;36.50;99.90
2387;DHT22;49473;50.772;8.768;2023-08-21T08:05:37;35.30;99.60
2387;DHT22;49473;50.772;8.768;2023-08-21T08:08:04;36.00;99.90
2387;DHT22;49473;50.772;8.768;2023-08-21T08:10:31;36.90;99.20
2387;DHT22;49473;50.772;8.768;2023-08-21T08:12:57;37.30;99.80
2387;DHT22;49473;50.772;8.768;2023-08-21T08:15:24;37.30;97.40
2387;DHT22;49473;50.772;8.768;2023-08-21T08:17:54;37.30;97.60
2387;DHT22;49473;50.772;8.768;2023-08-21T08:20:21;37.70;97.20
2387;DHT22;49473;50.772;8.768;2023-08-21T08:22:48;37.60;95.90
2387;DHT22;49473;50.772;8.768;2023-08-21T08:25:14;36.90;96.50
2387;DHT22;49473;50.772;8.768;2023-08-21T08:27:42;37.70;96.80
2387;DHT22;49473;50.772;8.768;2023-08-21T08:30:10;38.70;96.10
2387;DHT22;49473;50.772;8.768;2023-08-21T08:32:37;38.40;94.50
2387;DHT22;49473;50.772;8.768;2023-08-21T08:35:07;38.40;94.40
2387;DHT22;49473;50.772;8.768;2023-08-21T08:37:34;38.60;93.70
2387;DHT22;49473;50.772;8.768;2023-08-21T08:40:01;37.90;94.30
2387;DHT22;49473;50.772;8.768;2023-08-21T08:42:29;38.00;93.80
2387;DHT22;49473;50.772;8.768;2023-08-21T08:44:56;38.80;95.20
2387;DHT22;49473;50.772;8.768;2023-08-21T08:47:23;39.90;93.40
2387;DHT22;49473;50.772;8.768;2023-08-21T08:49:52;39.10;91.90
2387;DHT22;49473;50.772;8.768;2023-08-21T08:52:23;38.90;91.70
2387;DHT22;49473;50.772;8.768;2023-08-21T08:54:52;38.70;92.10
2387;DHT22;49473;50.772;8.768;2023-08-21T08:57:19;39.00;92.00
2387;DHT22;49473;50.772;8.768;2023-08-21T08:59:45;39.40;91.10
2387;DHT22;49473;50.772;8.768;2023-08-21T09:02:12;39.90;89.00
2387;DHT22;49473;50.772;8.768;2023-08-21T09:04:39;40.70;87.60
2387;DHT22;49473;50.772;8.768;2023-08-21T09:07:06;41.70;89.00
2387;DHT22;49473;50.772;8.768;2023-08-21T09:09:38;41.10;84.70
2387;DHT22;49473;50.772;8.768;2023-08-21T09:12:10;41.10;86.30
2387;DHT22;49473;50.772;8.768;2023-08-21T09:14:38;41.30;84.90
2387;DHT22;49473;50.772;8.768;2023-08-21T09:17:05;42.20;83.40
2387;DHT22;49473;50.772;8.768;2023-08-21T09:19:32;42.50;82.00
2387;DHT22;49473;50.772;8.768;2023-08-21T09:21:58;41.40;79.40
2387;DHT22;49473;50.772;8.768;2023-08-21T09:24:25;42.00;79.60
2387;DHT22;49473;50.772;8.768;2023-08-21T09:26:53;41.10;78.70
2387;DHT22;49473;50.772;8.768;2023-08-21T09:29:22;41.30;81.00
2387;DHT22;49473;50.772;8.768;2023-08-21T09:31:49;42.50;79.90
2387;DHT22;49473;50.772;8.768;2023-08-21T09:34:16;42.90;76.40
2387;DHT22;49473;50.772;8.768;2023-08-21T09:36:42;43.20;76.80
2387;DHT22;49473;50.772;8.768;2023-08-21T09:39:15;43.50;76.30
2387;DHT22;49473;50.772;8.768;2023-08-21T09:41:42;43.60;74.00
2387;DHT22;49473;50.772;8.768;2023-08-21T09:44:22;43.20;73.80
2387;DHT22;49473;50.772;8.768;2023-08-21T09:46:49;43.80;74.10
2387;DHT22;49473;50.772;8.768;2023-08-21T09:49:17;44.70;71.90
2387;DHT22;49473;50.772;8.768;2023-08-21T09:51:45;44.90;70.40
2387;DHT22;49473;50.772;8.768;2023-08-21T09:54:13;44.60;67.90
2387;DHT22;49473;50.772;8.768;2023-08-21T09:56:40;44.70;70.40
2387;DHT22;49473;50.772;8.768;2023-08-21T09:59:08;45.40;69.50
2387;DHT22;49473;50.772;8.768;2023-08-21T10:01:36;45.60;67.90
2387;DHT22;49473;50.772;8.768;2023-08-21T10:04:05;45.90;65.80
2387;DHT22;49473;50.772;8.768;2023-08-21T10:06:33;46.30;66.20
2387;DHT22;49473;50.772;8.768;2023-08-21T10:09:02;45.50;65.60
2387;DHT22;49473;50.772;8.768;2023-08-21T10:11:29;45.50;66.00
2387;DHT22;49473;50.772;8.768;2023-08-21T10:13:57;45.40;64.90
2387;DHT22;49473;50.772;8.768;2023-08-21T10:16:24;46.30;64.40
2387;DHT22;49473;50.772;8.768;2023-08-21T10:18:52;45.80;63.50
2387;DHT22;49473;50.772;8.768;2023-08-21T10:21:20;45.60;63.70
2387;DHT22;49473;50.772;8.768;2023-08-21T10:23:48;45.10;64.60
2387;DHT22;49473;50.772;8.768;2023-08-21T10:26:20;45.60;65.30
2387;DHT22;49473;50.772;8.768;2023-08-21T10:28:50;46.10;61.90
2387;DHT22;49473;50.772;8.768;2023-08-21T10:31:28;46.20;62.10
2387;DHT22;49473;50.772;8.768;2023-08-21T10:33:57;46.00;60.30
2387;DHT22;49473;50.772;8.768;2023-08-21T10:39:34;46.60;59.00
2387;DHT22;49473;50.772;8.768;2023-08-21T10:42:05;46.60;58.70
2387;DHT22;49473;50.772;8.768;2023-08-21T10:44:37;46.30;57.00
2387;DHT22;49473;50.772;8.768;2023-08-21T10:47:14;45.60;54.30
2387;DHT22;49473;50.772;8.768;2023-08-21T10:49:44;45.70;56.70
2387;DHT22;49473;50.772;8.768;2023-08-21T10:52:11;46.60;55.80
2387;DHT22;49473;50.772;8.768;2023-08-21T10:54:46;47.30;56.00
2387;DHT22;49473;50.772;8.768;2023-08-21T10:57:13;48.00;55.80
2387;DHT22;49473;50.772;8.768;2023-08-21T10:59:52;47.50;54.60
2387;DHT22;49473;50.772;8.768;2023-08-21T11:02:19;47.60;53.90
2387;DHT22;49473;50.772;8.768;2023-08-21T11:04:48;46.40;53.50
2387;DHT22;49473;50.772;8.768;2023-08-21T11:07:15;46.40;53.20
2387;DHT22;49473;50.772;8.768;2023-08-21T11:09:42;46.20;53.50
2387;DHT22;49473;50.772;8.768;2023-08-21T11:12:11;47.10;52.70
2387;DHT22;49473;50.772;8.768;2023-08-21T11:14:38;46.80;52.80
2387;DHT22;49473;50.772;8.768;2023-08-21T11:17:05;46.90;52.20
2387;DHT22;49473;50.772;8.768;2023-08-21T11:19:32;46.10;53.40
2387;DHT22;49473;50.772;8.768;2023-08-21T11:22:01;45.50;53.80
2387;DHT22;49473;50.772;8.768;2023-08-21T11:24:30;44.60;55.50
2387;DHT22;49473;50.772;8.768;2023-08-21T11:26:58;43.30;57.10
2387;DHT22;49473;50.772;8.768;2023-08-21T11:29:25;43.20;58.30
2387;DHT22;49473;50.772;8.768;2023-08-21T11:31:52;43.60;56.50
2387;DHT22;49473;50.772;8.768;2023-08-21T11:34:19;42.80;57.90
2387;DHT22;49473;50.772;8.768;2023-08-21T11:36:47;42.00;61.10
2387;DHT22;49473;50.772;8.768;2023-08-21T11:39:16;41.10;59.40
2387;DHT22;49473;50.772;8.768;2023-08-21T11:41:55;39.80;61.30
2387;DHT22;49473;50.772;8.768;2023-08-21T11:44:22;37.70;63.50
2387;DHT22;49473;50.772;8.768;2023-08-21T11:46:51;36.40;66.40
2387;DHT22;49473;50.772;8.768;2023-08-21T11:49:18;36.00;71.80
2387;DHT22;49473;50.772;8.768;2023-08-21T11:51:47;35.70;72.80
2387;DHT22;49473;50.772;8.768;2023-08-21T11:54:17;35.70;75.40
2387;DHT22;49473;50.772;8.768;2023-08-21T11:56:44;35.30;74.20
2387;DHT22;49473;50.772;8.768;2023-08-21T11:59:10;35.50;77.30
2387;DHT22;49473;50.772;8.768;2023-08-21T12:01:37;35.90;77.00
2387;DHT22;49473;50.772;8.768;2023-08-21T12:04:14;36.10;77.20
2387;DHT22;49473;50.772;8.768;2023-08-21T12:09:11;37.60;76.10
2387;DHT22;49473;50.772;8.768;2023-08-21T12:11:40;39.00;70.70
2387;DHT22;49473;50.772;8.768;2023-08-21T12:14:07;40.50;68.90
2387;DHT22;49473;50.772;8.768;2023-08-21T12:16:34;42.10;68.20
2387;DHT22;49473;50.772;8.768;2023-08-21T12:19:01;43.70;63.70
2387;DHT22;49473;50.772;8.768;2023-08-21T12:21:28;44.90;59.60
2387;DHT22;49473;50.772;8.768;2023-08-21T12:23:56;46.00;58.70
2387;DHT22;49473;50.772;8.768;2023-08-21T12:26:22;46.70;57.70
2387;DHT22;49473;50.772;8.768;2023-08-21T12:28:50;46.20;55.90
2387;DHT22;49473;50.772;8.768;2023-08-21T12:31:17;46.60;59.60
2387;DHT22;49473;50.772;8.768;2023-08-21T12:33:44;46.90;55.20
2387;DHT22;49473;50.772;8.768;2023-08-21T12:36:11;46.80;55.70
2387;DHT22;49473;50.772;8.768;2023-08-21T12:38:37;47.70;56.50
2387;DHT22;49473;50.772;8.768;2023-08-21T12:41:04;47.40;56.60
2387;DHT22;49473;50.772;8.768;2023-08-21T12:43:31;47.30;55.30
2387;DHT22;49473;50.772;8.768;2023-08-21T12:45:59;47.70;54.50
2387;DHT22;49473;50.772;8.768;2023-08-21T12:48:25;47.10;54.60
2387;DHT22;49473;50.772;8.768;2023-08-21T12:50:52;47.30;56.20
2387;DHT22;49473;50.772;8.768;2023-08-21T12:53:19;48.00;55.30
2387;DHT22;49473;50.772;8.768;2023-08-21T12:55:46;48.70;54.70
2387;DHT22;49473;50.772;8.768;2023-08-21T12:58:13;48.70;53.30
2387;DHT22;49473;50.772;8.768;2023-08-21T13:00:39;48.20;53.30
2387;DHT22;49473;50.772;8.768;2023-08-21T13:03:07;46.80;53.10
2387;DHT22;49473;50.772;8.768;2023-08-21T13:05:34;45.10;55.50
2387;DHT22;49473;50.772;8.768;2023-08-21T13:08:01;42.90;59.90
2387;DHT22;49473;50.772;8.768;2023-08-21T13:10:28;41.40;61.50
2387;DHT22;49473;50.772;8.768;2023-08-21T13:12:54;39.90;63.50
2387;DHT22;49473;50.772;8.768;2023-08-21T13:15:21;38.70;65.00
2387;DHT22;49473;50.772;8.768;2023-08-21T13:17:48;38.10;67.70
2387;DHT22;49473;50.772;8.768;2023-08-21T13:20:16;37.20;68.80
2387;DHT22;49473;50.772;8.768;2023-08-21T13:22:46;37.50;70.30
2387;DHT22;49473;50.772;8.768;2023-08-21T13:25:14;39.00;66.40
2387;DHT22;49473;50.772;8.768;2023-08-21T13:27:41;40.80;65.10
2387;DHT22;49473;50.772;8.768;2023-08-21T13:30:09;41.80;63.00
2387;DHT22;49473;50.772;8.768;2023-08-21T13:32:36;42.30;59.70
2387;DHT22;49473;50.772;8.768;2023-08-21T13:35:03;41.50;61.90
2387;DHT22;49473;50.772;8.768;2023-08-21T13:37:33;42.50;61.50
2387;DHT22;49473;50.772;8.768;2023-08-21T13:40:00;42.00;62.00
2387;DHT22;49473;50.772;8.768;2023-08-21T13:42:35;42.80;60.80
2387;DHT22;49473;50.772;8.768;2023-08-21T13:45:03;42.80;59.30
2387;DHT22;49473;50.772;8.768;2023-08-21T13:47:30;42.70;61.00
2387;DHT22;49473;50.772;8.768;2023-08-21T13:49:57;41.10;63.50
2387;DHT22;49473;50.772;8.768;2023-08-21T13:52:24;40.10;64.20
2387;DHT22;49473;50.772;8.768;2023-08-21T13:54:52;39.30;67.90
2387;DHT22;49473;50.772;8.768;2023-08-21T13:57:19;38.30;67.60
2387;DHT22;49473;50.772;8.768;2023-08-21T13:59:45;38.50;67.30
2387;DHT22;49473;50.772;8.768;2023-08-21T14:02:12;38.20;69.30
2387;DHT22;49473;50.772;8.768;2023-08-21T14:04:39;37.70;71.60
2387;DHT22;49473;50.772;8.768;2023-08-21T14:07:05;37.00;72.90
2387;DHT22;49473;50.772;8.768;2023-08-21T14:09:32;36.30;74.20
2387;DHT22;49473;50.772;8.768;2023-08-21T14:12:00;35.50;76.00
2387;DHT22;49473;50.772;8.768;2023-08-21T14:14:27;34.80;76.70
2387;DHT22;49473;50.772;8.768;2023-08-21T14:16:54;34.20;78.70
2387;DHT22;49473;50.772;8.768;2023-08-21T14:19:20;33.90;81.10
2387;DHT22;49473;50.772;8.768;2023-08-21T14:21:47;33.80;81.10
2387;DHT22;49473;50.772;8.768;2023-08-21T14:24:14;33.40;83.00
2387;DHT22;49473;50.772;8.768;2023-08-21T14:26:40;33.50;83.30
2387;DHT22;49473;50.772;8.768;2023-08-21T14:29:08;33.70;84.10
2387;DHT22;49473;50.772;8.768;2023-08-21T14:31:35;33.90;81.40
2387;DHT22;49473;50.772;8.768;2023-08-21T14:34:02;34.40;79.60
2387;DHT22;49473;50.772;8.768;2023-08-21T14:36:28;34.60;77.90
2387;DHT22;49473;50.772;8.768;2023-08-21T14:38:55;34.50;78.40
2387;DHT22;49473;50.772;8.768;2023-08-21T14:41:22;33.90;80.80
2387;DHT22;49473;50.772;8.768;2023-08-21T14:43:48;33.80;80.50
2387;DHT22;49473;50.772;8.768;2023-08-21T14:46:16;33.50;81.90
2387;DHT22;49473;50.772;8.768;2023-08-21T14:48:43;33.10;81.20
2387;DHT22;49473;50.772;8.768;2023-08-21T14:51:10;33.20;84.10
2387;DHT22;49473;50.772;8.768;2023-08-21T14:53:37;33.30;85.70
2387;DHT22;49473;50.772;8.768;2023-08-21T14:56:03;33.10;83.30
2387;DHT22;49473;50.772;8.768;2023-08-21T14:58:30;33.10;86.70
2387;DHT22;49473;50.772;8.768;2023-08-21T15:00:57;32.70;83.60
2387;DHT22;49473;50.772;8.768;2023-08-21T15:03:25;32.30;84.90
2387;DHT22;49473;50.772;8.768;2023-08-21T15:05:52;32.30;87.40
2387;DHT22;49473;50.772;8.768;2023-08-21T15:08:19;32.50;88.20
2387;DHT22;49473;50.772;8.768;2023-08-21T15:10:45;32.70;88.80
2387;DHT22;49473;50.772;8.768;2023-08-21T15:13:12;32.50;87.90
2387;DHT22;49473;50.772;8.768;2023-08-21T15:15:39;32.50;90.00
2387;DHT22;49473;50.772;8.768;2023-08-21T15:18:06;32.50;87.90
2387;DHT22;49473;50.772;8.768;2023-08-21T15:20:34;32.60;88.40
2387;DHT22;49473;50.772;8.768;2023-08-21T15:23:00;32.50;86.00
2387;DHT22;49473;50.772;8.768;2023-08-21T15:25:27;32.50;84.10
2387;DHT22;49473;50.772;8.768;2023-08-21T15:27:54;32.70;87.50
2387;DHT22;49473;50.772;8.768;2023-08-21T15:30:21;32.80;88.80
2387;DHT22;49473;50.772;8.768;2023-08-21T15:32:47;32.60;88.20
2387;DHT22;49473;50.772;8.768;2023-08-21T15:35:14;32.40;89.60
2387;DHT22;49473;50.772;8.768;2023-08-21T15:37:42;32.30;87.30
2387;DHT22;49473;50.772;8.768;2023-08-21T15:40:11;32.10;90.00
2387;DHT22;49473;50.772;8.768;2023-08-21T15:42:37;31.80;89.80
2387;DHT22;49473;50.772;8.768;2023-08-21T15:45:05;31.70;90.00
2387;DHT22;49473;50.772;8.768;2023-08-21T15:47:32;31.60;91.00
2387;DHT22;49473;50.772;8.768;2023-08-21T15:49:59;31.50;92.00
2387;DHT22;49473;50.772;8.768;2023-08-21T15:52:25;31.50;91.00